METAR Data
IDs: Format: Raw Decoded Include TAF

Data at: 1403 UTC 22 Apr 2021

KPBI 221353Z 36009KT 10SM SCT085 SCT120 25/18 A3007 RMK AO2 SLP183 T02500178
KPBI 221253Z 35008KT 10SM SCT075 BKN120 23/16 A3006 RMK AO2 SLP179 T02280161
KPBI 221153Z 34007KT 10SM SCT080 BKN120 21/14 A3005 RMK AO2 SLP176 60000 T02110144 10239 20200 53017
KPBI 221053Z 35006KT 10SM SCT075 BKN090 BKN120 21/14 A3003 RMK AO2 RAB08E15 SLP169 P0000 T02060139
KPBI 220953Z 31006KT 10SM BKN070 BKN120 21/14 A3002 RMK AO2 SLP166 T02110139
KPBI 220853Z 33010KT 10SM BKN080 22/13 A3000 RMK AO2 SLP159 T02170128 55000
KPBI 220753Z 33013G18KT 10SM BKN085 BKN120 22/14 A2999 RMK AO2 SLP154 T02220139
KPBI 220653Z 32007KT 10SM FEW090 BKN120 23/15 A2999 RMK AO2 SLP153 T02280150
KPBI 220553Z 29008KT 10SM SCT090 BKN120 24/20 A3000 RMK AO2 SLP159 T02390200 10261 20239 58002
KPBI 220453Z 27006KT 10SM BKN180 24/22 A3001 RMK AO2 SLP160 T02390217 402830217
KPBI 220353Z 26004KT 10SM BKN180 24/22 A3001 RMK AO2 SLP161 T02440217
KPBI 220253Z 00000KT 10SM SCT160 24/21 A3001 RMK AO2 SLP161 T02440211 53012
KPBI 220153Z 00000KT 10SM SCT170 25/21 A3000 RMK AO2 SLP156 T02500206
KPBI 220053Z 29004KT 10SM FEW030 FEW090 SCT160 25/21 A2999 RMK AO2 SLP154 T02500206
KPBI 212353Z 29006KT 10SM SCT030 SCT080 BKN250 26/20 A2998 RMK AO2 SLP150 T02610200 10283 20261 51008
KPBI 212253Z 26008KT 10SM SCT030 SCT090 BKN250 28/20 A2997 RMK AO2 SLP148 T02780200
KPBI 212153Z 27008KT 10SM SCT030 BKN065 28/21 A2996 RMK AO2 SLP145 T02780206
KPBI 212053Z 27007KT 10SM SCT027 SCT070 BKN090 28/21 A2995 RMK AO2 SLP142 T02780206 56016
KPBI 211953Z 30009KT 10SM SCT028 BKN065 BKN085 28/21 A2996 RMK AO2 SLP143 CB DSNT SE S T02780211
KPBI 211853Z 27010KT 10SM SCT026 BKN055 BKN070 28/21 A2997 RMK AO2 SLP149 CB DSNT SE-S T02780206
KPBI 211753Z 27006KT 10SM SCT025 BKN032 BKN055 27/22 A3000 RMK AO2 SLP157 T02720217 10283 20228 58001
KPBI 211731Z 26007KT 10SM SCT025 BKN043 BKN060 27/22 A3000 RMK AO2 T02720217
KPBI 211653Z 26006KT 10SM SCT023 BKN029 BKN037 28/22 A3000 RMK AO2 SLP159 T02830217
KPBI 211601Z 29006KT 10SM BKN023 BKN075 BKN150 28/22 A3001 RMK AO2 T02780217
KPBI 211553Z 28005KT 10SM SCT024 BKN075 BKN150 27/21 A3002 RMK AO2 SLP165 T02720211
KPBI 211453Z VRB04KT 10SM SCT042 BKN160 BKN250 26/21 A3000 RMK AO2 SLP158 T02610206 51005
KPBI 211353Z 27006KT 10SM BKN170 BKN250 26/21 A3000 RMK AO2 SLP157 T02610211
KPBI 211253Z 27007KT 10SM SCT150 BKN250 25/21 A3000 RMK AO2 SLP157 T02500211
KPBI 211153Z 27005KT 10SM SCT160 BKN250 23/21 A2999 RMK AO2 SLP153 T02280211 10244 20217 53008 $
KPBI 211053Z 27005KT 10SM FEW150 BKN250 22/20 A2996 RMK AO2 SLP146 T02220200 $
KPBI 210953Z 24005KT 10SM FEW250 23/21 A2997 RMK AO2 SLP148 T02280206 $
KPBI 210853Z 24005KT 10SM FEW250 23/21 A2996 RMK AO2 SLP145 T02280206 55004 $
KPBI 210753Z 23005KT 10SM FEW250 23/22 A2996 RMK AO2 SLP143 T02330217 $
KPBI 210653Z 23005KT 10SM SCT250 24/22 A2996 RMK AO2 SLP143 T02390222 $
KPBI 210553Z 22005KT 10SM SCT250 24/22 A2997 RMK AO2 SLP149 T02440222 10272 20244 58002 $
KPBI 210453Z 20004KT 10SM SCT250 25/22 A2998 RMK AO2 SLP151 T02500222 403060206 $
KPBI 210353Z 19004KT 10SM SCT250 25/22 A2998 RMK AO2 SLP152 T02500222 $
KPBI 210253Z 00000KT 10SM SCT250 26/22 A2998 RMK AO2 SLP151 T02560222 52011 $